createdAt,value
2023-05-03T00:00:13.635Z,1.27
2023-05-03T00:02:44.582Z,2.55
2023-05-03T00:05:14.978Z,2.17
2023-05-03T00:07:45.495Z,1.55
2023-05-03T00:10:15.862Z,2.97
2023-05-03T00:12:45.336Z,1.52
2023-05-03T00:15:13.629Z,1.27
2023-05-03T00:17:41.988Z,2.15
2023-05-03T00:20:12.072Z,1.77
2023-05-03T00:22:40.362Z,1.33
2023-05-03T00:25:11.046Z,0.90
2023-05-03T00:27:39.424Z,1.50
2023-05-03T00:30:08.272Z,1.75
2023-05-03T00:32:36.592Z,1.92
2023-05-03T00:35:05.144Z,1.80
2023-05-03T00:37:33.473Z,1.00
2023-05-03T00:40:02.062Z,1.90
2023-05-03T00:42:31.881Z,1.20
2023-05-03T00:45:00.221Z,1.95
2023-05-03T00:47:28.652Z,1.48
2023-05-03T00:49:56.927Z,1.50
2023-05-03T00:52:25.227Z,1.70
2023-05-03T00:54:53.783Z,1.67
2023-05-03T00:57:22.755Z,1.60
2023-05-03T00:59:54.425Z,2.22
2023-05-03T01:02:22.877Z,1.13
2023-05-03T01:04:51.364Z,1.42
2023-05-03T01:07:25.681Z,2.28
2023-05-03T01:09:58.011Z,1.70
2023-05-03T01:12:32.376Z,1.67
2023-05-03T01:15:09.104Z,1.08
2023-05-03T01:17:41.125Z,1.75
2023-05-03T01:20:11.363Z,1.70
2023-05-03T01:22:44.910Z,1.15
2023-05-03T01:25:15.828Z,1.25
2023-05-03T01:27:44.713Z,1.25
2023-05-03T01:33:12.943Z,2.10
2023-05-03T01:35:43.056Z,1.58
2023-05-03T01:38:11.828Z,1.15
2023-05-03T01:40:44.054Z,0.80
2023-05-03T01:43:12.821Z,1.83
2023-05-03T01:45:41.550Z,1.92
2023-05-03T01:48:13.194Z,1.52
2023-05-03T01:50:41.485Z,1.50
2023-05-03T01:53:09.835Z,1.50
2023-05-03T01:55:38.137Z,1.58
2023-05-03T01:58:09.807Z,1.38
2023-05-03T02:00:38.173Z,1.55
2023-05-03T02:03:06.537Z,1.23
2023-05-03T02:05:34.916Z,1.15
2023-05-03T02:08:03.453Z,1.15
2023-05-03T02:10:31.764Z,2.03
2023-05-03T02:13:00.487Z,2.10
2023-05-03T02:15:30.320Z,1.20
2023-05-03T02:18:02.154Z,1.55
2023-05-03T02:20:35.434Z,1.40
2023-05-03T02:23:03.739Z,1.63
2023-05-03T02:25:32.500Z,1.08
2023-05-03T02:28:01.137Z,1.75
2023-05-03T02:30:31.094Z,1.67
2023-05-03T02:32:59.526Z,1.23
2023-05-03T02:35:27.942Z,1.90
2023-05-03T02:37:56.962Z,0.88
2023-05-03T02:40:25.348Z,1.80
2023-05-03T02:42:53.875Z,1.23
2023-05-03T02:45:22.297Z,1.92
2023-05-03T02:47:52.048Z,1.67
2023-05-03T02:50:20.486Z,1.48
2023-05-03T02:52:48.774Z,1.98
2023-05-03T02:55:17.164Z,1.42
2023-05-03T02:57:45.475Z,0.88
2023-05-03T03:00:15.230Z,1.58
2023-05-03T03:02:43.983Z,1.73
2023-05-03T03:05:13.896Z,1.77
2023-05-03T03:07:42.287Z,0.85
2023-05-03T03:10:11.157Z,1.13
2023-05-03T03:12:39.879Z,1.42
2023-05-03T03:15:08.946Z,1.42
2023-05-03T03:17:39.416Z,1.10
2023-05-03T03:20:11.506Z,1.00
2023-05-03T03:22:41.476Z,1.90
2023-05-03T03:25:10.287Z,1.45
2023-05-03T03:27:39.810Z,1.05
2023-05-03T03:30:09.386Z,1.25
2023-05-03T03:32:37.787Z,1.23
2023-05-03T03:35:06.445Z,1.08
2023-05-03T03:37:34.712Z,1.33
2023-05-03T03:40:04.666Z,0.93
2023-05-03T03:42:33.219Z,1.75
2023-05-03T03:45:01.606Z,0.98
2023-05-03T03:47:29.965Z,1.05
2023-05-03T03:49:58.323Z,0.95
2023-05-03T03:52:26.622Z,1.08
2023-05-03T03:54:54.954Z,1.27
2023-05-03T03:57:26.092Z,1.17
2023-05-03T03:59:54.432Z,1.35
2023-05-03T04:02:22.827Z,0.95
2023-05-03T04:04:51.157Z,1.30
2023-05-03T04:07:19.471Z,1.42
2023-05-03T04:09:47.775Z,1.38
2023-05-03T04:12:16.077Z,0.77
2023-05-03T04:14:47.014Z,1.55
2023-05-03T04:17:15.395Z,2.08
2023-05-03T04:19:43.775Z,1.42
2023-05-03T04:22:12.071Z,1.00
2023-05-03T04:24:40.965Z,1.23
2023-05-03T04:27:09.288Z,1.05
2023-05-03T04:29:38.802Z,0.88
2023-05-03T04:32:09.780Z,1.73
2023-05-03T04:34:38.854Z,1.95
2023-05-03T04:37:08.934Z,1.75
2023-05-03T04:39:37.337Z,1.75
2023-05-03T04:42:06.145Z,1.70
2023-05-03T04:44:34.688Z,2.08
2023-05-03T04:47:03.321Z,1.83
2023-05-03T04:49:33.066Z,1.50
2023-05-03T04:52:01.496Z,1.70
2023-05-03T04:54:29.841Z,1.10
2023-05-03T04:56:58.192Z,1.20
2023-05-03T04:59:26.497Z,1.23
2023-05-03T05:01:54.811Z,1.50
2023-05-03T05:04:23.124Z,1.80
2023-05-03T05:06:54.116Z,1.67
2023-05-03T05:09:23.403Z,1.52
2023-05-03T05:11:51.816Z,1.48
2023-05-03T05:14:20.177Z,1.90
2023-05-03T05:16:48.565Z,1.85
2023-05-03T05:19:17.050Z,1.75
2023-05-03T05:21:45.416Z,1.48
2023-05-03T05:24:15.104Z,1.40
2023-05-03T05:26:43.633Z,1.80
2023-05-03T05:29:12.712Z,3.28
2023-05-03T05:31:41.323Z,2.03
2023-05-03T05:34:09.851Z,1.33
2023-05-03T05:36:38.386Z,3.28
2023-05-03T05:39:06.723Z,3.20
2023-05-03T05:41:36.462Z,1.65
2023-05-03T05:44:04.828Z,2.22
2023-05-03T05:46:33.261Z,2.28
2023-05-03T05:49:01.583Z,3.13
2023-05-03T05:51:30.686Z,2.35
2023-05-03T05:53:58.996Z,2.10
2023-05-03T05:56:27.576Z,2.50
2023-05-03T05:58:57.648Z,2.65
2023-05-03T06:01:27.056Z,1.73
2023-05-03T06:03:56.481Z,1.90
2023-05-03T06:06:24.991Z,2.15
2023-05-03T06:08:53.384Z,2.40
2023-05-03T06:11:21.739Z,2.35
2023-05-03T06:13:50.049Z,2.13
2023-05-03T06:16:19.936Z,1.33
2023-05-03T06:18:48.290Z,1.83
2023-05-03T06:21:16.671Z,1.33
2023-05-03T06:23:45.156Z,2.00
2023-05-03T06:26:13.441Z,1.75
2023-05-03T06:28:41.837Z,1.42
2023-05-03T06:31:10.316Z,1.73
2023-05-03T06:33:40.004Z,1.73
2023-05-03T06:36:09.623Z,1.55
2023-05-03T06:38:37.904Z,1.95
2023-05-03T06:41:06.205Z,2.22
2023-05-03T06:43:34.533Z,1.63
2023-05-03T06:46:03.288Z,1.85
2023-05-03T06:48:31.707Z,1.85
2023-05-03T06:51:01.496Z,1.52
2023-05-03T06:53:30.016Z,2.25
2023-05-03T06:55:58.459Z,1.45
2023-05-03T06:58:26.802Z,2.22
2023-05-03T07:00:55.158Z,2.28
2023-05-03T07:03:23.671Z,2.35
2023-05-03T07:05:52.310Z,2.17
2023-05-03T07:08:22.019Z,2.17
2023-05-03T07:10:50.392Z,1.73
2023-05-03T07:13:18.727Z,3.47
2023-05-03T07:15:47.080Z,2.30
2023-05-03T07:18:15.656Z,1.48
2023-05-03T07:20:44.018Z,1.70
2023-05-03T07:23:12.350Z,2.40
2023-05-03T07:25:41.993Z,1.88
2023-05-03T07:28:10.366Z,3.13
2023-05-03T07:30:38.807Z,2.53
2023-05-03T07:33:07.217Z,2.58
2023-05-03T07:35:35.579Z,2.15
2023-05-03T07:38:04.009Z,1.75
2023-05-03T07:40:33.303Z,3.17
2023-05-03T07:43:03.183Z,2.40
2023-05-03T07:45:31.589Z,2.58
2023-05-03T07:47:59.941Z,3.78
2023-05-03T07:50:28.288Z,3.38
2023-05-03T07:52:56.609Z,2.63
2023-05-03T07:55:25.371Z,2.38
2023-05-03T07:57:58.476Z,2.13
2023-05-03T08:00:28.416Z,4.43
2023-05-03T08:02:56.939Z,2.78
2023-05-03T08:05:25.546Z,3.03
2023-05-03T08:07:54.004Z,3.92
2023-05-03T08:10:22.519Z,2.78
2023-05-03T08:12:51.417Z,2.63
2023-05-03T08:15:19.843Z,2.63
2023-05-03T08:17:49.554Z,2.40
2023-05-03T08:20:17.955Z,5.38
2023-05-03T08:22:46.749Z,2.58
2023-05-03T08:25:16.935Z,2.72
2023-05-03T08:27:45.332Z,2.05
2023-05-03T08:30:13.768Z,3.28
2023-05-03T08:32:42.220Z,2.67
2023-05-03T08:35:14.037Z,3.33
2023-05-03T08:37:42.518Z,3.63
2023-05-03T08:40:13.761Z,4.05
2023-05-03T08:42:42.603Z,3.30
2023-05-03T08:45:15.758Z,4.20
2023-05-03T08:47:45.484Z,3.28
2023-05-03T08:50:16.192Z,3.53
2023-05-03T08:52:45.140Z,3.97
2023-05-03T08:55:13.449Z,3.45
2023-05-03T08:57:42.254Z,5.03
2023-05-03T09:00:12.999Z,2.42
2023-05-03T09:02:41.962Z,3.13
2023-05-03T09:05:41.450Z,3.35
2023-05-03T09:08:12.613Z,3.42
2023-05-03T09:10:41.709Z,4.60
2023-05-03T09:13:10.708Z,4.70
2023-05-03T09:15:39.374Z,3.63
2023-05-03T09:18:11.724Z,3.88
2023-05-03T09:20:41.812Z,3.47
2023-05-03T09:23:11.831Z,3.95
2023-05-03T09:25:46.739Z,3.33
2023-05-03T09:30:44.071Z,3.63
2023-05-03T09:33:12.615Z,3.83
2023-05-03T09:35:41.133Z,3.25
2023-05-03T09:38:27.456Z,3.67
2023-05-03T09:40:55.928Z,4.38
2023-05-03T09:43:24.615Z,3.40
2023-05-03T09:45:53.038Z,3.42
2023-05-03T09:48:23.641Z,4.05
2023-05-03T09:50:52.822Z,3.65
2023-05-03T09:53:23.396Z,4.32
2023-05-03T09:55:52.512Z,4.40
2023-05-03T09:58:21.849Z,3.95
2023-05-03T10:00:52.594Z,5.15
2023-05-03T10:03:25.406Z,3.15
2023-05-03T10:05:54.671Z,5.22
2023-05-03T10:08:28.674Z,4.43
2023-05-03T10:10:57.564Z,3.45
2023-05-03T10:13:26.301Z,4.10
2023-05-03T10:15:56.230Z,3.97
2023-05-03T10:18:27.592Z,4.93
2023-05-03T10:20:58.489Z,4.80
2023-05-03T10:23:28.198Z,4.07
2023-05-03T10:26:15.543Z,3.78
2023-05-03T10:28:43.926Z,3.83
2023-05-03T10:31:31.002Z,4.13
2023-05-03T10:33:59.325Z,4.57
2023-05-03T10:36:38.366Z,3.50
2023-05-03T10:39:18.915Z,3.47
2023-05-03T10:41:47.262Z,4.40
2023-05-03T10:44:33.376Z,4.20
2023-05-03T10:47:11.392Z,5.85
2023-05-03T10:49:39.786Z,3.15
2023-05-03T10:52:34.665Z,3.80
2023-05-03T10:55:04.695Z,4.93
2023-05-03T10:57:33.841Z,3.22
2023-05-03T11:00:03.801Z,4.20
2023-05-03T11:02:34.473Z,5.15
2023-05-03T11:05:05.358Z,3.53
2023-05-03T11:07:34.520Z,5.60
2023-05-03T11:10:17.183Z,3.35
2023-05-03T11:12:48.187Z,4.53
2023-05-03T11:15:16.541Z,5.03
2023-05-03T11:17:45.068Z,4.05
2023-05-03T11:20:13.751Z,4.07
2023-05-03T11:22:42.156Z,5.22
2023-05-03T11:25:12.240Z,2.63
2023-05-03T11:27:42.931Z,4.47
2023-05-03T11:30:12.170Z,3.95
2023-05-03T11:32:40.861Z,4.18
2023-05-03T11:35:09.520Z,3.58
2023-05-03T11:37:37.900Z,4.20
2023-05-03T11:40:06.943Z,3.20
2023-05-03T11:42:36.872Z,4.35
2023-05-03T11:45:05.956Z,3.45
2023-05-03T11:47:34.765Z,4.38
2023-05-03T11:50:03.949Z,3.60
2023-05-03T11:52:32.616Z,3.33
2023-05-03T11:55:02.818Z,3.15
2023-05-03T11:57:31.525Z,4.07
2023-05-03T12:00:14.585Z,4.07
2023-05-03T12:02:43.033Z,3.15
2023-05-03T12:05:12.433Z,3.13
2023-05-03T12:07:41.532Z,3.05
2023-05-03T12:10:23.132Z,3.83
2023-05-03T12:12:57.076Z,3.30
2023-05-03T12:15:33.415Z,3.25
2023-05-03T12:18:04.653Z,3.72
2023-05-03T12:21:28.323Z,2.65
2023-05-03T12:23:22.818Z,3.20
2023-05-03T12:25:56.756Z,2.97
2023-05-03T12:28:26.040Z,3.40
2023-05-03T12:30:57.629Z,3.65
2023-05-03T12:33:28.425Z,3.15
2023-05-03T12:35:59.090Z,2.92
2023-05-03T12:38:30.618Z,2.72
2023-05-03T12:40:59.831Z,3.55
2023-05-03T12:43:28.239Z,3.25
2023-05-03T12:48:33.246Z,2.67
2023-05-03T12:51:18.501Z,3.40
2023-05-03T12:53:54.132Z,3.80
2023-05-03T12:56:25.284Z,3.05
2023-05-03T13:04:18.885Z,3.15
2023-05-03T13:06:47.483Z,3.35
2023-05-03T13:09:22.319Z,2.97
2023-05-03T13:11:59.766Z,2.35
2023-05-03T13:14:29.974Z,2.75
2023-05-03T13:17:00.292Z,3.05
2023-05-03T13:19:29.008Z,3.03
2023-05-03T13:21:57.362Z,2.92
2023-05-03T13:24:26.152Z,3.10
2023-05-03T13:26:54.778Z,4.07
2023-05-03T13:29:24.167Z,2.50
2023-05-03T13:31:52.532Z,3.38
2023-05-03T13:34:22.349Z,3.10
2023-05-03T13:36:50.727Z,2.65
2023-05-03T13:39:19.290Z,2.70
2023-05-03T13:41:48.154Z,2.30
2023-05-03T13:44:16.774Z,2.50
2023-05-03T13:46:46.178Z,1.80
2023-05-03T13:49:14.679Z,2.10
2023-05-03T13:51:44.456Z,2.33
2023-05-03T13:54:12.755Z,2.13
2023-05-03T13:56:42.827Z,1.38
2023-05-03T13:59:13.808Z,1.58
2023-05-03T14:01:43.337Z,1.27
2023-05-03T14:04:12.294Z,2.33
2023-05-03T14:06:41.794Z,1.30
2023-05-03T14:09:11.994Z,1.42
2023-05-03T14:11:41.082Z,1.77
2023-05-03T14:14:09.576Z,1.65
2023-05-03T14:16:41.263Z,1.38
2023-05-03T14:19:11.633Z,1.20
2023-05-03T14:21:40.450Z,1.67
2023-05-03T14:24:09.139Z,1.67
2023-05-03T14:26:41.345Z,1.73
2023-05-03T14:29:09.718Z,1.80
2023-05-03T14:31:38.123Z,1.50
2023-05-03T14:34:06.534Z,1.50
2023-05-03T14:36:38.833Z,1.23
2023-05-03T14:39:07.286Z,1.75
2023-05-03T14:41:36.203Z,1.05
2023-05-03T14:44:06.932Z,1.42
2023-05-03T14:46:35.285Z,1.65
2023-05-03T14:49:03.686Z,0.85
2023-05-03T14:51:32.958Z,1.05
2023-05-03T14:54:01.727Z,1.27
2023-05-03T14:56:31.656Z,1.30
2023-05-03T14:59:00.008Z,1.48
2023-05-03T15:01:29.885Z,1.70
2023-05-03T15:03:58.379Z,1.30
2023-05-03T15:06:28.599Z,1.75
2023-05-03T15:08:58.231Z,1.35
2023-05-03T15:11:27.450Z,1.25
2023-05-03T15:13:55.869Z,1.50
2023-05-03T15:16:24.314Z,1.23
2023-05-03T15:18:54.004Z,1.00
2023-05-03T15:21:23.796Z,1.17
2023-05-03T15:23:54.024Z,1.00
2023-05-03T15:26:24.413Z,1.25
2023-05-03T15:28:53.150Z,1.33
2023-05-03T15:31:21.769Z,1.02
2023-05-03T15:33:50.280Z,1.25
2023-05-03T15:36:19.908Z,1.10
2023-05-03T15:38:50.262Z,1.08
2023-05-03T15:41:18.695Z,1.23
2023-05-03T15:43:47.298Z,1.02
2023-05-03T15:46:16.072Z,1.90
2023-05-03T15:48:44.565Z,0.93
2023-05-03T15:51:12.930Z,1.13
2023-05-03T15:53:43.651Z,1.15
2023-05-03T15:56:12.178Z,1.40
2023-05-03T15:58:40.731Z,1.60
2023-05-03T16:01:09.311Z,1.08
2023-05-03T16:03:37.751Z,0.95
2023-05-03T16:06:06.945Z,1.25
2023-05-03T16:08:35.563Z,1.25
2023-05-03T16:11:05.391Z,1.33
2023-05-03T16:13:33.693Z,1.20
2023-05-03T16:16:03.150Z,1.15
2023-05-03T16:18:31.962Z,1.23
2023-05-03T16:21:00.379Z,1.25
2023-05-03T16:23:28.763Z,0.82
2023-05-03T16:25:57.537Z,1.15
2023-05-03T16:28:27.180Z,1.10
2023-05-03T16:30:55.583Z,0.70
2023-05-03T16:33:23.962Z,1.10
2023-05-03T16:35:52.691Z,1.30
2023-05-03T16:38:21.035Z,0.98
2023-05-03T16:40:49.447Z,0.90
2023-05-03T16:43:18.420Z,1.02
2023-05-03T16:45:56.321Z,1.33
2023-05-03T16:48:24.865Z,1.20
2023-05-03T16:50:53.161Z,1.10
2023-05-03T16:53:21.768Z,1.00
2023-05-03T16:55:50.085Z,1.25
2023-05-03T16:58:18.483Z,1.02
2023-05-03T17:00:48.299Z,1.00
2023-05-03T17:03:17.473Z,1.00
2023-05-03T17:05:45.970Z,1.02
2023-05-03T17:08:15.413Z,1.38
2023-05-03T17:10:45.270Z,1.38
2023-05-03T17:13:13.828Z,0.90
2023-05-03T17:15:42.527Z,1.25
2023-05-03T17:18:12.394Z,1.00
2023-05-03T17:20:40.807Z,1.30
2023-05-03T17:23:09.638Z,1.42
2023-05-03T17:25:38.275Z,1.17
2023-05-03T17:28:06.588Z,1.20
2023-05-03T17:30:35.025Z,1.30
2023-05-03T17:33:03.450Z,1.13
2023-05-03T17:35:33.472Z,0.82
2023-05-03T17:38:02.110Z,0.77
2023-05-03T17:40:30.633Z,1.15
2023-05-03T17:42:58.972Z,0.82
2023-05-03T17:45:27.967Z,1.00
2023-05-03T17:47:56.516Z,1.00
2023-05-03T17:50:24.917Z,1.10
2023-05-03T17:52:55.891Z,1.02
2023-05-03T17:55:24.217Z,1.08
2023-05-03T17:57:52.845Z,1.60
2023-05-03T18:00:22.501Z,0.70
2023-05-03T18:02:51.125Z,0.77
2023-05-03T18:05:19.481Z,1.23
2023-05-03T18:07:47.810Z,1.17
2023-05-03T18:10:18.051Z,0.73
2023-05-03T18:12:46.532Z,0.80
2023-05-03T18:15:15.892Z,0.63
2023-05-03T18:17:44.563Z,0.90
2023-05-03T18:20:13.653Z,0.80
2023-05-03T18:22:42.335Z,1.25
2023-05-03T18:25:11.012Z,1.42
2023-05-03T18:27:40.761Z,1.17
2023-05-03T18:30:10.568Z,1.15
2023-05-03T18:32:38.978Z,0.95
2023-05-03T18:35:07.904Z,1.42
2023-05-03T18:37:36.326Z,0.90
2023-05-03T18:40:05.458Z,0.90
2023-05-03T18:42:34.091Z,0.80
2023-05-03T18:45:04.400Z,1.00
2023-05-03T18:47:33.064Z,1.00
2023-05-03T18:50:01.535Z,1.30
2023-05-03T18:52:29.967Z,1.08
2023-05-03T18:54:58.289Z,1.30
2023-05-03T18:57:27.354Z,2.13
2023-05-03T19:00:01.286Z,1.48
2023-05-03T19:02:31.732Z,1.35
2023-05-03T19:05:01.123Z,1.48
2023-05-03T19:07:29.780Z,1.05
2023-05-03T19:09:58.628Z,1.45
2023-05-03T19:12:26.978Z,1.25
2023-05-03T19:14:55.397Z,1.13
2023-05-03T19:17:23.732Z,2.08
2023-05-03T19:19:54.611Z,1.02
2023-05-03T19:22:22.915Z,1.23
2023-05-03T19:24:51.247Z,1.52
2023-05-03T19:27:19.804Z,1.50
2023-05-03T19:29:48.371Z,2.63
2023-05-03T19:32:16.732Z,1.92
2023-05-03T19:34:45.038Z,1.15
2023-05-03T19:37:14.775Z,1.92
2023-05-03T19:39:43.219Z,1.30
2023-05-03T19:42:11.575Z,1.35
2023-05-03T19:44:39.885Z,1.80
2023-05-03T19:47:08.697Z,1.63
2023-05-03T19:49:37.788Z,2.50
2023-05-03T19:52:06.294Z,1.60
2023-05-03T19:54:35.979Z,1.42
2023-05-03T19:57:06.182Z,1.77
2023-05-03T19:59:35.084Z,2.10
2023-05-03T20:02:03.703Z,1.80
2023-05-03T20:04:32.141Z,2.20
2023-05-03T20:07:00.968Z,1.45
2023-05-03T20:09:29.332Z,1.42
2023-05-03T20:11:59.823Z,1.67
2023-05-03T20:14:28.358Z,1.85
2023-05-03T20:16:57.049Z,1.52
2023-05-03T20:19:25.961Z,2.20
2023-05-03T20:21:54.406Z,1.95
2023-05-03T20:24:23.115Z,1.70
2023-05-03T20:26:51.548Z,1.67
2023-05-03T20:29:21.236Z,1.92
2023-05-03T20:31:49.563Z,1.92
2023-05-03T20:34:18.029Z,1.88
2023-05-03T20:36:46.554Z,2.38
2023-05-03T20:39:15.696Z,2.00
2023-05-03T20:41:44.225Z,2.08
2023-05-03T20:44:13.853Z,2.22
2023-05-03T20:46:45.438Z,1.90
2023-05-03T20:49:13.825Z,1.92
2023-05-03T20:51:42.181Z,1.55
2023-05-03T20:54:10.835Z,2.28
2023-05-03T20:56:39.275Z,2.17
2023-05-03T20:59:07.671Z,1.35
2023-05-03T21:01:39.367Z,2.35
2023-05-03T21:04:09.230Z,1.73
2023-05-03T21:06:38.558Z,2.38
2023-05-03T21:09:07.062Z,1.55
2023-05-03T21:11:35.581Z,2.40
2023-05-03T21:14:04.079Z,1.80
2023-05-03T21:16:32.652Z,2.92
2023-05-03T21:19:01.389Z,1.90
2023-05-03T21:21:31.168Z,2.38
2023-05-03T21:23:59.588Z,2.03
2023-05-03T21:26:29.123Z,1.75
2023-05-03T21:28:57.778Z,1.83
2023-05-03T21:31:26.176Z,1.95
2023-05-03T21:33:54.537Z,2.33
2023-05-03T21:36:23.065Z,2.28
2023-05-03T21:38:53.077Z,2.15
2023-05-03T21:41:21.721Z,2.15
2023-05-03T21:43:51.159Z,1.70
2023-05-03T21:46:19.532Z,2.75
2023-05-03T21:48:47.900Z,1.83
2023-05-03T21:51:19.531Z,1.90
2023-05-03T21:53:48.199Z,2.40
2023-05-03T21:56:17.887Z,1.80
2023-05-03T21:58:46.416Z,2.53
2023-05-03T22:01:17.041Z,1.70
2023-05-03T22:03:45.454Z,1.90
2023-05-03T22:06:13.885Z,1.70
2023-05-03T22:08:42.174Z,1.85
2023-05-03T22:11:11.490Z,2.33
2023-05-03T22:13:54.626Z,1.65
2023-05-03T22:16:29.635Z,1.55
2023-05-03T22:18:58.446Z,1.98
2023-05-03T22:21:26.801Z,2.20
2023-05-03T22:23:55.153Z,2.33
2023-05-03T22:26:24.280Z,1.80
2023-05-03T22:28:54.033Z,2.15
2023-05-03T22:31:22.455Z,2.03
2023-05-03T22:33:50.777Z,1.77
2023-05-03T22:36:19.293Z,1.65
2023-05-03T22:38:47.605Z,2.28
2023-05-03T22:41:15.964Z,1.80
2023-05-03T22:43:44.299Z,2.03
2023-05-03T22:46:14.084Z,2.20
2023-05-03T22:48:42.490Z,2.10
2023-05-03T22:51:10.835Z,1.50
2023-05-03T22:53:39.168Z,1.75
2023-05-03T22:56:07.895Z,2.30
2023-05-03T22:58:37.207Z,1.70
2023-05-03T23:01:05.676Z,2.20
2023-05-03T23:03:35.484Z,1.98
2023-05-03T23:06:03.875Z,2.08
2023-05-03T23:08:32.267Z,1.58
2023-05-03T23:11:00.568Z,1.65
2023-05-03T23:13:28.871Z,3.20
2023-05-03T23:15:57.292Z,2.63
2023-05-03T23:18:26.101Z,1.70
2023-05-03T23:20:55.810Z,2.63
2023-05-03T23:23:24.903Z,2.53
2023-05-03T23:25:53.399Z,1.92
2023-05-03T23:28:22.180Z,2.63
2023-05-03T23:30:50.921Z,2.70
2023-05-03T23:33:19.752Z,2.05
2023-05-03T23:35:48.725Z,1.88
2023-05-03T23:38:18.449Z,1.75
2023-05-03T23:40:46.776Z,2.47
2023-05-03T23:43:15.245Z,1.67
2023-05-03T23:45:43.591Z,1.98
2023-05-03T23:48:11.979Z,2.38
2023-05-03T23:50:40.372Z,1.85
2023-05-03T23:53:08.697Z,2.58
2023-05-03T23:55:38.399Z,1.80
2023-05-03T23:58:06.733Z,2.05
